sensor_id;sensor_type;location;lat;lon;timestamp;pressure;altitude;pressure_sealevel;temperature;humidity
62124;BME280;48110;47.532;19.078;2023-04-03T00:01:29;100291.81;;;5.95;100.00
62124;BME280;48110;47.532;19.078;2023-04-03T00:04:32;100288.88;;;5.98;100.00
62124;BME280;48110;47.532;19.078;2023-04-03T00:07:35;100294.44;;;5.95;100.00
62124;BME280;48110;47.532;19.078;2023-04-03T00:10:38;100298.59;;;5.88;100.00
62124;BME280;48110;47.532;19.078;2023-04-03T00:13:41;100287.22;;;5.87;100.00
62124;BME280;48110;47.532;19.078;2023-04-03T00:16:44;100290.16;;;5.94;100.00
62124;BME280;48110;47.532;19.078;2023-04-03T00:19:47;100294.44;;;5.85;100.00
62124;BME280;48110;47.532;19.078;2023-04-03T00:22:50;100288.03;;;5.78;100.00
62124;BME280;48110;47.532;19.078;2023-04-03T00:25:53;100287.50;;;5.84;100.00
62124;BME280;48110;47.532;19.078;2023-04-03T00:28:56;100300.12;;;5.81;100.00
62124;BME280;48110;47.532;19.078;2023-04-03T00:31:59;100301.66;;;5.93;100.00
62124;BME280;48110;47.532;19.078;2023-04-03T00:35:02;100301.94;;;5.90;100.00
62124;BME280;48110;47.532;19.078;2023-04-03T00:38:05;100294.44;;;5.85;100.00
62124;BME280;48110;47.532;19.078;2023-04-03T00:41:08;100305.25;;;5.92;100.00
62124;BME280;48110;47.532;19.078;2023-04-03T00:44:21;100303.97;;;5.86;100.00
62124;BME280;48110;47.532;19.078;2023-04-03T00:47:25;100298.03;;;5.84;100.00
62124;BME280;48110;47.532;19.078;2023-04-03T00:50:29;100301.75;;;5.82;100.00
62124;BME280;48110;47.532;19.078;2023-04-03T00:54:08;100306.75;;;5.85;100.00
62124;BME280;48110;47.532;19.078;2023-04-03T00:57:05;100310.78;;;5.79;100.00
62124;BME280;48110;47.532;19.078;2023-04-03T01:00:12;100312.72;;;5.87;100.00
62124;BME280;48110;47.532;19.078;2023-04-03T01:03:17;100314.78;;;5.83;100.00
62124;BME280;48110;47.532;19.078;2023-04-03T01:06:25;100322.13;;;5.80;100.00
62124;BME280;48110;47.532;19.078;2023-04-03T01:09:29;100323.66;;;5.82;100.00
62124;BME280;48110;47.532;19.078;2023-04-03T01:12:38;100312.03;;;5.75;99.38
62124;BME280;48110;47.532;19.078;2023-04-03T01:15:48;100321.00;;;5.73;100.00
62124;BME280;48110;47.532;19.078;2023-04-03T01:18:51;100323.38;;;5.76;99.34
62124;BME280;48110;47.532;19.078;2023-04-03T01:22:30;100314.06;;;5.81;99.22
62124;BME280;48110;47.532;19.078;2023-04-03T01:25:41;100314.38;;;5.68;99.30
62124;BME280;48110;47.532;19.078;2023-04-03T01:28:44;100309.38;;;5.65;99.98
62124;BME280;48110;47.532;19.078;2023-04-03T01:31:53;100308.56;;;5.65;100.00
62124;BME280;48110;47.532;19.078;2023-04-03T01:34:56;100317.12;;;5.67;98.87
62124;BME280;48110;47.532;19.078;2023-04-03T01:37:59;100313.81;;;5.55;99.45
62124;BME280;48110;47.532;19.078;2023-04-03T01:41:02;100309.38;;;5.56;98.64
62124;BME280;48110;47.532;19.078;2023-04-03T01:44:06;100313.38;;;5.50;98.49
62124;BME280;48110;47.532;19.078;2023-04-03T01:47:08;100318.09;;;5.47;97.34
62124;BME280;48110;47.532;19.078;2023-04-03T01:50:12;100306.03;;;5.44;98.20
62124;BME280;48110;47.532;19.078;2023-04-03T01:53:14;100324.44;;;5.44;97.72
62124;BME280;48110;47.532;19.078;2023-04-03T01:56:17;100318.34;;;5.34;97.92
62124;BME280;48110;47.532;19.078;2023-04-03T01:59:20;100335.37;;;5.30;97.96
62124;BME280;48110;47.532;19.078;2023-04-03T02:02:23;100329.56;;;5.27;98.91
62124;BME280;48110;47.532;19.078;2023-04-03T02:05:26;100339.50;;;5.33;99.51
62124;BME280;48110;47.532;19.078;2023-04-03T02:08:29;100333.56;;;5.31;98.15
62124;BME280;48110;47.532;19.078;2023-04-03T02:11:32;100337.31;;;5.38;97.56
62124;BME280;48110;47.532;19.078;2023-04-03T02:14:35;100344.06;;;5.21;97.78
62124;BME280;48110;47.532;19.078;2023-04-03T02:17:38;100332.84;;;5.19;98.34
62124;BME280;48110;47.532;19.078;2023-04-03T02:20:41;100342.41;;;5.20;99.23
62124;BME280;48110;47.532;19.078;2023-04-03T02:23:43;100336.97;;;5.02;98.80
62124;BME280;48110;47.532;19.078;2023-04-03T02:26:46;100339.03;;;5.08;100.00
62124;BME280;48110;47.532;19.078;2023-04-03T02:29:49;100338.34;;;5.06;100.00
62124;BME280;48110;47.532;19.078;2023-04-03T02:32:52;100339.00;;;4.99;100.00
62124;BME280;48110;47.532;19.078;2023-04-03T02:35:56;100332.78;;;5.00;99.95
62124;BME280;48110;47.532;19.078;2023-04-03T02:38:59;100334.97;;;4.95;100.00
62124;BME280;48110;47.532;19.078;2023-04-03T02:42:03;100335.13;;;4.93;100.00
62124;BME280;48110;47.532;19.078;2023-04-03T02:45:06;100332.06;;;4.88;99.69
62124;BME280;48110;47.532;19.078;2023-04-03T02:48:09;100334.81;;;4.87;100.00
62124;BME280;48110;47.532;19.078;2023-04-03T02:51:12;100336.88;;;4.83;100.00
62124;BME280;48110;47.532;19.078;2023-04-03T02:54:15;100338.78;;;4.81;100.00
62124;BME280;48110;47.532;19.078;2023-04-03T02:57:18;100341.25;;;4.73;100.00
62124;BME280;48110;47.532;19.078;2023-04-03T03:00:22;100341.81;;;4.76;100.00
62124;BME280;48110;47.532;19.078;2023-04-03T03:03:25;100351.06;;;4.71;100.00
62124;BME280;48110;47.532;19.078;2023-04-03T03:06:28;100342.34;;;4.70;100.00
62124;BME280;48110;47.532;19.078;2023-04-03T03:09:31;100342.88;;;4.64;100.00
62124;BME280;48110;47.532;19.078;2023-04-03T03:12:34;100339.81;;;4.59;100.00
62124;BME280;48110;47.532;19.078;2023-04-03T03:15:37;100347.56;;;4.61;100.00
62124;BME280;48110;47.532;19.078;2023-04-03T03:18:40;100343.53;;;4.57;100.00
62124;BME280;48110;47.532;19.078;2023-04-03T03:21:43;100358.16;;;4.50;100.00
62124;BME280;48110;47.532;19.078;2023-04-03T03:24:46;100349.00;;;4.44;100.00
62124;BME280;48110;47.532;19.078;2023-04-03T03:27:49;100355.78;;;4.47;100.00
62124;BME280;48110;47.532;19.078;2023-04-03T03:30:52;100354.38;;;4.43;100.00
62124;BME280;48110;47.532;19.078;2023-04-03T03:33:55;100351.34;;;4.47;100.00
62124;BME280;48110;47.532;19.078;2023-04-03T03:36:58;100351.84;;;4.41;100.00
62124;BME280;48110;47.532;19.078;2023-04-03T03:40:01;100355.72;;;4.37;100.00
62124;BME280;48110;47.532;19.078;2023-04-03T03:43:05;100353.75;;;4.29;100.00
62124;BME280;48110;47.532;19.078;2023-04-03T03:46:08;100345.28;;;4.26;100.00
62124;BME280;48110;47.532;19.078;2023-04-03T03:49:10;100352.56;;;4.22;100.00
62124;BME280;48110;47.532;19.078;2023-04-03T03:52:14;100354.12;;;4.25;100.00
62124;BME280;48110;47.532;19.078;2023-04-03T03:55:17;100351.44;;;4.15;100.00
62124;BME280;48110;47.532;19.078;2023-04-03T03:58:24;100356.91;;;4.12;100.00
62124;BME280;48110;47.532;19.078;2023-04-03T04:01:27;100358.06;;;3.99;100.00
62124;BME280;48110;47.532;19.078;2023-04-03T04:04:30;100348.66;;;3.96;100.00
62124;BME280;48110;47.532;19.078;2023-04-03T04:07:33;100346.72;;;3.98;100.00
62124;BME280;48110;47.532;19.078;2023-04-03T04:10:37;100353.31;;;3.92;100.00
62124;BME280;48110;47.532;19.078;2023-04-03T04:13:40;100349.16;;;3.90;100.00
62124;BME280;48110;47.532;19.078;2023-04-03T04:16:44;100348.97;;;3.82;100.00
62124;BME280;48110;47.532;19.078;2023-04-03T04:19:48;100355.41;;;3.78;100.00
62124;BME280;48110;47.532;19.078;2023-04-03T04:22:51;100354.63;;;3.66;100.00
62124;BME280;48110;47.532;19.078;2023-04-03T04:25:54;100354.38;;;3.69;100.00
62124;BME280;48110;47.532;19.078;2023-04-03T04:28:58;100373.22;;;3.63;100.00
62124;BME280;48110;47.532;19.078;2023-04-03T04:32:04;100361.94;;;3.52;100.00
62124;BME280;48110;47.532;19.078;2023-04-03T04:35:07;100366.47;;;3.49;100.00
62124;BME280;48110;47.532;19.078;2023-04-03T04:38:11;100368.25;;;3.49;100.00
62124;BME280;48110;47.532;19.078;2023-04-03T04:41:14;100364.66;;;3.50;100.00
62124;BME280;48110;47.532;19.078;2023-04-03T04:44:18;100368.75;;;3.43;100.00
62124;BME280;48110;47.532;19.078;2023-04-03T04:47:22;100379.00;;;3.46;100.00
62124;BME280;48110;47.532;19.078;2023-04-03T04:50:26;100377.09;;;3.48;100.00
62124;BME280;48110;47.532;19.078;2023-04-03T04:53:29;100381.12;;;3.52;100.00
62124;BME280;48110;47.532;19.078;2023-04-03T04:56:32;100386.88;;;3.46;100.00
62124;BME280;48110;47.532;19.078;2023-04-03T04:59:36;100381.25;;;3.50;100.00
62124;BME280;48110;47.532;19.078;2023-04-03T05:02:41;100391.72;;;3.62;100.00
62124;BME280;48110;47.532;19.078;2023-04-03T05:05:45;100388.75;;;3.55;100.00
62124;BME280;48110;47.532;19.078;2023-04-03T05:08:48;100390.41;;;3.67;100.00
62124;BME280;48110;47.532;19.078;2023-04-03T05:11:51;100392.75;;;3.70;100.00
62124;BME280;48110;47.532;19.078;2023-04-03T05:14:54;100394.44;;;3.71;100.00
62124;BME280;48110;47.532;19.078;2023-04-03T05:17:58;100395.75;;;3.66;100.00
62124;BME280;48110;47.532;19.078;2023-04-03T05:21:01;100397.06;;;3.71;100.00
62124;BME280;48110;47.532;19.078;2023-04-03T05:24:04;100409.22;;;3.72;100.00
62124;BME280;48110;47.532;19.078;2023-04-03T05:27:07;100411.34;;;3.78;100.00
62124;BME280;48110;47.532;19.078;2023-04-03T05:30:11;100407.28;;;3.74;100.00
62124;BME280;48110;47.532;19.078;2023-04-03T05:33:14;100397.84;;;3.83;100.00
62124;BME280;48110;47.532;19.078;2023-04-03T05:36:18;100403.47;;;3.78;100.00
62124;BME280;48110;47.532;19.078;2023-04-03T05:39:22;100400.00;;;3.78;100.00
62124;BME280;48110;47.532;19.078;2023-04-03T05:42:26;100403.97;;;3.72;100.00
62124;BME280;48110;47.532;19.078;2023-04-03T05:45:29;100406.97;;;3.68;100.00
62124;BME280;48110;47.532;19.078;2023-04-03T05:48:33;100404.69;;;3.63;100.00
62124;BME280;48110;47.532;19.078;2023-04-03T05:51:36;100408.06;;;3.54;100.00
62124;BME280;48110;47.532;19.078;2023-04-03T05:54:40;100419.25;;;3.67;100.00
62124;BME280;48110;47.532;19.078;2023-04-03T05:57:43;100417.22;;;3.60;100.00
62124;BME280;48110;47.532;19.078;2023-04-03T06:00:47;100418.75;;;3.73;100.00
62124;BME280;48110;47.532;19.078;2023-04-03T06:03:50;100409.91;;;3.74;100.00
62124;BME280;48110;47.532;19.078;2023-04-03T06:06:55;100416.94;;;3.74;100.00
62124;BME280;48110;47.532;19.078;2023-04-03T06:10:00;100413.34;;;3.86;100.00
62124;BME280;48110;47.532;19.078;2023-04-03T06:13:04;100416.19;;;3.94;100.00
62124;BME280;48110;47.532;19.078;2023-04-03T06:16:10;100414.09;;;4.09;100.00
62124;BME280;48110;47.532;19.078;2023-04-03T06:19:14;100413.16;;;4.10;100.00
62124;BME280;48110;47.532;19.078;2023-04-03T06:22:20;100419.06;;;4.23;100.00
62124;BME280;48110;47.532;19.078;2023-04-03T06:25:23;100417.44;;;4.31;100.00
62124;BME280;48110;47.532;19.078;2023-04-03T06:28:27;100426.47;;;4.50;100.00
62124;BME280;48110;47.532;19.078;2023-04-03T06:31:29;100425.03;;;4.66;100.00
62124;BME280;48110;47.532;19.078;2023-04-03T06:34:33;100420.13;;;5.03;100.00
62124;BME280;48110;47.532;19.078;2023-04-03T06:37:35;100435.00;;;5.23;100.00
62124;BME280;48110;47.532;19.078;2023-04-03T06:40:38;100429.34;;;5.28;100.00
62124;BME280;48110;47.532;19.078;2023-04-03T06:43:42;100433.44;;;5.42;100.00
62124;BME280;48110;47.532;19.078;2023-04-03T06:46:45;100435.91;;;5.43;100.00
62124;BME280;48110;47.532;19.078;2023-04-03T06:49:49;100438.59;;;5.62;98.86
62124;BME280;48110;47.532;19.078;2023-04-03T06:52:56;100443.06;;;5.72;96.05
62124;BME280;48110;47.532;19.078;2023-04-03T06:55:59;100431.84;;;5.69;91.11
62124;BME280;48110;47.532;19.078;2023-04-03T06:59:02;100442.25;;;5.81;87.85
62124;BME280;48110;47.532;19.078;2023-04-03T07:02:04;100447.84;;;5.97;84.88
62124;BME280;48110;47.532;19.078;2023-04-03T07:05:08;100455.62;;;6.08;82.33
62124;BME280;48110;47.532;19.078;2023-04-03T07:08:11;100465.62;;;6.14;81.93
62124;BME280;48110;47.532;19.078;2023-04-03T07:11:14;100475.75;;;6.28;81.95
62124;BME280;48110;47.532;19.078;2023-04-03T07:14:17;100469.09;;;6.43;79.09
62124;BME280;48110;47.532;19.078;2023-04-03T07:17:20;100470.16;;;6.79;77.65
62124;BME280;48110;47.532;19.078;2023-04-03T07:20:22;100482.69;;;7.24;74.91
62124;BME280;48110;47.532;19.078;2023-04-03T07:23:25;100470.41;;;7.05;71.59
62124;BME280;48110;47.532;19.078;2023-04-03T07:26:28;100473.06;;;6.95;71.77
62124;BME280;48110;47.532;19.078;2023-04-03T07:29:31;100474.34;;;7.28;73.23
62124;BME280;48110;47.532;19.078;2023-04-03T07:32:34;100475.38;;;7.08;69.75
62124;BME280;48110;47.532;19.078;2023-04-03T07:35:37;100471.25;;;7.42;68.17
62124;BME280;48110;47.532;19.078;2023-04-03T07:38:40;100480.63;;;7.82;67.47
62124;BME280;48110;47.532;19.078;2023-04-03T07:41:43;100472.47;;;7.48;67.80
62124;BME280;48110;47.532;19.078;2023-04-03T07:44:46;100481.66;;;7.99;66.13
62124;BME280;48110;47.532;19.078;2023-04-03T07:47:49;100485.28;;;7.98;64.07
62124;BME280;48110;47.532;19.078;2023-04-03T07:50:52;100479.81;;;8.44;63.71
62124;BME280;48110;47.532;19.078;2023-04-03T07:53:55;100484.87;;;8.38;62.88
62124;BME280;48110;47.532;19.078;2023-04-03T07:56:58;100481.34;;;8.47;63.68
62124;BME280;48110;47.532;19.078;2023-04-03T08:00:02;100487.91;;;8.60;61.12
62124;BME280;48110;47.532;19.078;2023-04-03T08:03:14;100493.25;;;8.33;62.70
62124;BME280;48110;47.532;19.078;2023-04-03T08:06:19;100483.75;;;8.58;62.12
62124;BME280;48110;47.532;19.078;2023-04-03T08:09:39;100489.31;;;8.90;59.80
62124;BME280;48110;47.532;19.078;2023-04-03T08:12:41;100489.25;;;8.64;60.73
62124;BME280;48110;47.532;19.078;2023-04-03T08:15:44;100499.41;;;9.21;57.24
62124;BME280;48110;47.532;19.078;2023-04-03T08:18:47;100492.47;;;8.94;58.76
62124;BME280;48110;47.532;19.078;2023-04-03T08:21:50;100493.41;;;8.85;59.22
62124;BME280;48110;47.532;19.078;2023-04-03T08:24:54;100490.91;;;8.48;60.22
62124;BME280;48110;47.532;19.078;2023-04-03T08:28:00;100495.75;;;8.70;59.39
62124;BME280;48110;47.532;19.078;2023-04-03T08:31:06;100500.34;;;9.37;58.54
62124;BME280;48110;47.532;19.078;2023-04-03T08:34:09;100494.81;;;9.56;57.45
62124;BME280;48110;47.532;19.078;2023-04-03T08:37:13;100499.13;;;9.99;54.67
62124;BME280;48110;47.532;19.078;2023-04-03T08:40:18;100495.78;;;9.89;53.36
62124;BME280;48110;47.532;19.078;2023-04-03T08:43:40;100489.13;;;10.19;53.53
62124;BME280;48110;47.532;19.078;2023-04-03T08:50:28;100501.28;;;10.78;51.43
62124;BME280;48110;47.532;19.078;2023-04-03T08:53:35;100510.50;;;11.31;49.13
62124;BME280;48110;47.532;19.078;2023-04-03T08:56:42;100503.09;;;11.73;47.78
62124;BME280;48110;47.532;19.078;2023-04-03T08:59:44;100504.41;;;10.58;49.71
62124;BME280;48110;47.532;19.078;2023-04-03T09:02:53;100501.91;;;11.21;49.25
62124;BME280;48110;47.532;19.078;2023-04-03T09:06:21;100503.50;;;11.46;47.20
62124;BME280;48110;47.532;19.078;2023-04-03T09:09:35;100504.38;;;11.14;48.25
62124;BME280;48110;47.532;19.078;2023-04-03T09:12:49;100498.00;;;11.48;50.21
62124;BME280;48110;47.532;19.078;2023-04-03T09:15:56;100503.84;;;11.35;47.62
62124;BME280;48110;47.532;19.078;2023-04-03T09:22:27;100497.63;;;10.87;48.30
62124;BME280;48110;47.532;19.078;2023-04-03T09:25:36;100498.63;;;11.03;48.04
62124;BME280;48110;47.532;19.078;2023-04-03T09:28:41;100506.88;;;11.32;47.13
62124;BME280;48110;47.532;19.078;2023-04-03T09:32:12;100506.03;;;11.23;48.96
62124;BME280;48110;47.532;19.078;2023-04-03T09:38:34;100502.25;;;11.02;46.96
62124;BME280;48110;47.532;19.078;2023-04-03T09:41:37;100495.28;;;11.17;49.09
62124;BME280;48110;47.532;19.078;2023-04-03T09:44:40;100495.66;;;9.99;50.37
62124;BME280;48110;47.532;19.078;2023-04-03T09:47:43;100494.13;;;11.03;48.90
62124;BME280;48110;47.532;19.078;2023-04-03T09:51:01;100489.50;;;11.60;46.68
62124;BME280;48110;47.532;19.078;2023-04-03T09:54:32;100489.50;;;10.65;48.57
62124;BME280;48110;47.532;19.078;2023-04-03T09:57:34;100487.00;;;10.47;50.26
62124;BME280;48110;47.532;19.078;2023-04-03T10:00:39;100493.31;;;10.78;48.82
62124;BME280;48110;47.532;19.078;2023-04-03T10:03:43;100482.19;;;9.84;50.48
62124;BME280;48110;47.532;19.078;2023-04-03T10:06:55;100489.13;;;9.77;51.02
62124;BME280;48110;47.532;19.078;2023-04-03T10:13:17;100493.59;;;10.27;50.19
62124;BME280;48110;47.532;19.078;2023-04-03T10:16:32;100497.38;;;9.40;51.92
62124;BME280;48110;47.532;19.078;2023-04-03T10:19:46;100494.69;;;9.32;51.41
62124;BME280;48110;47.532;19.078;2023-04-03T10:29:50;100494.78;;;10.49;49.07
62124;BME280;48110;47.532;19.078;2023-04-03T10:33:22;100495.56;;;10.17;48.81
62124;BME280;48110;47.532;19.078;2023-04-03T10:39:50;100502.88;;;10.23;49.13
62124;BME280;48110;47.532;19.078;2023-04-03T10:43:15;100496.62;;;9.98;48.59
62124;BME280;48110;47.532;19.078;2023-04-03T10:46:31;100498.09;;;9.84;47.98
62124;BME280;48110;47.532;19.078;2023-04-03T10:59:48;100490.63;;;10.30;49.21
62124;BME280;48110;47.532;19.078;2023-04-03T11:03:03;100488.81;;;10.38;48.28
62124;BME280;48110;47.532;19.078;2023-04-03T11:06:09;100483.91;;;10.01;48.87
62124;BME280;48110;47.532;19.078;2023-04-03T11:09:25;100492.59;;;10.20;47.42
62124;BME280;48110;47.532;19.078;2023-04-03T11:12:51;100489.38;;;10.08;48.18
62124;BME280;48110;47.532;19.078;2023-04-03T11:15:57;100482.34;;;10.25;47.83
62124;BME280;48110;47.532;19.078;2023-04-03T11:19:11;100482.53;;;10.48;46.51
62124;BME280;48110;47.532;19.078;2023-04-03T11:22:22;100476.53;;;10.94;46.49
62124;BME280;48110;47.532;19.078;2023-04-03T11:25:25;100484.78;;;11.31;44.60
62124;BME280;48110;47.532;19.078;2023-04-03T11:28:28;100484.91;;;11.38;44.92
62124;BME280;48110;47.532;19.078;2023-04-03T11:35:09;100467.00;;;11.40;44.72
62124;BME280;48110;47.532;19.078;2023-04-03T11:38:23;100467.72;;;11.18;44.95
62124;BME280;48110;47.532;19.078;2023-04-03T11:41:30;100461.06;;;11.14;44.32
62124;BME280;48110;47.532;19.078;2023-04-03T11:44:36;100458.28;;;10.99;44.29
62124;BME280;48110;47.532;19.078;2023-04-03T11:47:50;100455.13;;;10.96;45.58
62124;BME280;48110;47.532;19.078;2023-04-03T11:50:57;100452.12;;;11.15;43.26
62124;BME280;48110;47.532;19.078;2023-04-03T11:58:14;100455.31;;;10.29;46.38
62124;BME280;48110;47.532;19.078;2023-04-03T12:05:26;100453.66;;;10.36;47.22
62124;BME280;48110;47.532;19.078;2023-04-03T12:11:35;100457.81;;;9.73;47.59
62124;BME280;48110;47.532;19.078;2023-04-03T12:14:39;100455.62;;;10.18;47.38
62124;BME280;48110;47.532;19.078;2023-04-03T12:17:42;100449.59;;;9.92;47.27
62124;BME280;48110;47.532;19.078;2023-04-03T12:30:24;100449.03;;;10.71;45.41
62124;BME280;48110;47.532;19.078;2023-04-03T12:34:36;100444.88;;;10.60;46.08
62124;BME280;48110;47.532;19.078;2023-04-03T12:47:00;100436.78;;;10.45;46.16
62124;BME280;48110;47.532;19.078;2023-04-03T12:50:16;100431.94;;;10.41;47.79
62124;BME280;48110;47.532;19.078;2023-04-03T12:53:33;100431.62;;;10.44;46.88
62124;BME280;48110;47.532;19.078;2023-04-03T12:56:37;100422.41;;;9.90;47.62
62124;BME280;48110;47.532;19.078;2023-04-03T12:59:39;100426.72;;;9.91;47.53
62124;BME280;48110;47.532;19.078;2023-04-03T13:02:44;100425.66;;;10.26;47.37
62124;BME280;48110;47.532;19.078;2023-04-03T13:05:49;100429.38;;;9.91;47.62
62124;BME280;48110;47.532;19.078;2023-04-03T13:08:57;100419.84;;;10.46;46.50
62124;BME280;48110;47.532;19.078;2023-04-03T13:15:18;100413.09;;;10.36;46.59
62124;BME280;48110;47.532;19.078;2023-04-03T13:18:30;100412.41;;;10.34;46.49
62124;BME280;48110;47.532;19.078;2023-04-03T13:21:34;100403.28;;;10.69;45.43
62124;BME280;48110;47.532;19.078;2023-04-03T13:24:37;100400.28;;;11.74;43.77
62124;BME280;48110;47.532;19.078;2023-04-03T13:27:41;100398.19;;;11.92;42.64
62124;BME280;48110;47.532;19.078;2023-04-03T13:31:00;100395.22;;;11.87;42.91
62124;BME280;48110;47.532;19.078;2023-04-03T13:34:17;100393.66;;;12.24;43.68
62124;BME280;48110;47.532;19.078;2023-04-03T13:37:27;100396.94;;;12.03;42.53
62124;BME280;48110;47.532;19.078;2023-04-03T13:40:31;100399.03;;;11.54;43.16
62124;BME280;48110;47.532;19.078;2023-04-03T13:43:48;100392.69;;;11.94;42.36
62124;BME280;48110;47.532;19.078;2023-04-03T13:47:00;100397.03;;;11.56;42.64
62124;BME280;48110;47.532;19.078;2023-04-03T13:53:15;100394.47;;;11.31;42.42
62124;BME280;48110;47.532;19.078;2023-04-03T13:56:31;100389.19;;;11.93;41.27
62124;BME280;48110;47.532;19.078;2023-04-03T13:59:35;100389.47;;;11.67;41.60
62124;BME280;48110;47.532;19.078;2023-04-03T14:02:38;100374.19;;;12.23;41.81
62124;BME280;48110;47.532;19.078;2023-04-03T14:05:42;100381.28;;;13.92;38.89
62124;BME280;48110;47.532;19.078;2023-04-03T14:08:45;100368.47;;;14.02;37.39
62124;BME280;48110;47.532;19.078;2023-04-03T14:11:51;100371.41;;;13.35;38.79
62124;BME280;48110;47.532;19.078;2023-04-03T14:14:54;100371.84;;;13.39;37.95
62124;BME280;48110;47.532;19.078;2023-04-03T14:17:59;100372.56;;;12.74;39.63
62124;BME280;48110;47.532;19.078;2023-04-03T14:21:04;100359.81;;;11.87;40.45
62124;BME280;48110;47.532;19.078;2023-04-03T14:24:07;100353.97;;;11.91;41.09
62124;BME280;48110;47.532;19.078;2023-04-03T14:27:23;100358.63;;;11.66;41.56
62124;BME280;48110;47.532;19.078;2023-04-03T14:30:29;100356.13;;;11.34;41.75
62124;BME280;48110;47.532;19.078;2023-04-03T14:33:32;100366.66;;;11.11;42.46
62124;BME280;48110;47.532;19.078;2023-04-03T14:36:38;100367.50;;;11.04;43.97
62124;BME280;48110;47.532;19.078;2023-04-03T14:39:41;100373.94;;;10.46;43.20
62124;BME280;48110;47.532;19.078;2023-04-03T14:42:44;100361.53;;;10.30;44.63
62124;BME280;48110;47.532;19.078;2023-04-03T14:45:50;100365.00;;;10.39;44.45
62124;BME280;48110;47.532;19.078;2023-04-03T14:48:53;100365.78;;;10.72;43.92
62124;BME280;48110;47.532;19.078;2023-04-03T14:51:57;100364.91;;;10.87;44.06
62124;BME280;48110;47.532;19.078;2023-04-03T14:55:03;100362.94;;;10.81;44.33
62124;BME280;48110;47.532;19.078;2023-04-03T14:58:11;100363.16;;;10.64;44.66
62124;BME280;48110;47.532;19.078;2023-04-03T15:01:14;100370.31;;;10.23;45.46
62124;BME280;48110;47.532;19.078;2023-04-03T15:04:20;100370.47;;;10.45;44.86
62124;BME280;48110;47.532;19.078;2023-04-03T15:07:25;100365.97;;;10.46;44.89
62124;BME280;48110;47.532;19.078;2023-04-03T15:10:30;100365.00;;;10.39;43.85
62124;BME280;48110;47.532;19.078;2023-04-03T15:13:34;100368.50;;;10.39;44.97
62124;BME280;48110;47.532;19.078;2023-04-03T15:16:36;100363.81;;;10.41;44.84
62124;BME280;48110;47.532;19.078;2023-04-03T15:19:39;100368.50;;;10.39;43.78
62124;BME280;48110;47.532;19.078;2023-04-03T15:22:42;100365.00;;;10.39;45.48
62124;BME280;48110;47.532;19.078;2023-04-03T15:25:47;100373.28;;;10.20;45.90
62124;BME280;48110;47.532;19.078;2023-04-03T15:28:50;100368.31;;;10.17;45.43
62124;BME280;48110;47.532;19.078;2023-04-03T15:31:54;100364.97;;;9.98;46.25
62124;BME280;48110;47.532;19.078;2023-04-03T15:34:56;100359.13;;;9.63;46.00
62124;BME280;48110;47.532;19.078;2023-04-03T15:37:59;100362.53;;;9.47;46.46
62124;BME280;48110;47.532;19.078;2023-04-03T15:41:02;100362.59;;;9.21;47.01
62124;BME280;48110;47.532;19.078;2023-04-03T15:44:05;100356.22;;;8.98;47.53
62124;BME280;48110;47.532;19.078;2023-04-03T15:47:07;100364.59;;;8.85;47.63
62124;BME280;48110;47.532;19.078;2023-04-03T15:50:10;100367.13;;;8.69;47.56
62124;BME280;48110;47.532;19.078;2023-04-03T15:53:14;100367.28;;;8.67;47.55
62124;BME280;48110;47.532;19.078;2023-04-03T15:56:17;100372.91;;;8.64;48.34
62124;BME280;48110;47.532;19.078;2023-04-03T15:59:19;100370.75;;;8.68;47.73
62124;BME280;48110;47.532;19.078;2023-04-03T16:02:23;100378.19;;;8.64;48.06
62124;BME280;48110;47.532;19.078;2023-04-03T16:05:26;100382.28;;;8.59;47.31
62124;BME280;48110;47.532;19.078;2023-04-03T16:08:29;100389.84;;;8.54;48.27
62124;BME280;48110;47.532;19.078;2023-04-03T16:11:31;100393.94;;;8.48;49.55
62124;BME280;48110;47.532;19.078;2023-04-03T16:14:34;100387.53;;;8.33;48.41
62124;BME280;48110;47.532;19.078;2023-04-03T16:17:38;100386.53;;;8.34;49.57
62124;BME280;48110;47.532;19.078;2023-04-03T16:20:43;100386.84;;;8.13;48.81
62124;BME280;48110;47.532;19.078;2023-04-03T16:23:46;100387.38;;;7.99;49.39
62124;BME280;48110;47.532;19.078;2023-04-03T16:26:49;100397.13;;;7.99;48.55
62124;BME280;48110;47.532;19.078;2023-04-03T16:29:51;100390.06;;;7.90;48.00
62124;BME280;48110;47.532;19.078;2023-04-03T16:32:54;100397.22;;;7.79;47.86
62124;BME280;48110;47.532;19.078;2023-04-03T16:35:58;100394.38;;;7.73;47.30
62124;BME280;48110;47.532;19.078;2023-04-03T16:39:01;100400.94;;;7.69;47.42
62124;BME280;48110;47.532;19.078;2023-04-03T16:42:04;100404.75;;;7.57;47.48
62124;BME280;48110;47.532;19.078;2023-04-03T16:45:07;100414.25;;;7.50;47.64
62124;BME280;48110;47.532;19.078;2023-04-03T16:48:11;100419.59;;;7.40;47.72
62124;BME280;48110;47.532;19.078;2023-04-03T16:51:13;100432.38;;;7.35;48.50
62124;BME280;48110;47.532;19.078;2023-04-03T16:54:16;100438.62;;;7.34;48.56
62124;BME280;48110;47.532;19.078;2023-04-03T16:57:19;100442.81;;;7.27;48.52
62124;BME280;48110;47.532;19.078;2023-04-03T17:00:23;100456.31;;;7.24;48.00
62124;BME280;48110;47.532;19.078;2023-04-03T17:03:25;100466.38;;;7.11;47.84
62124;BME280;48110;47.532;19.078;2023-04-03T17:06:31;100468.88;;;7.03;47.54
62124;BME280;48110;47.532;19.078;2023-04-03T17:09:34;100483.31;;;6.98;47.97
62124;BME280;48110;47.532;19.078;2023-04-03T17:12:37;100491.94;;;6.91;46.98
62124;BME280;48110;47.532;19.078;2023-04-03T17:15:40;100489.75;;;6.77;47.78